Weather at Pınarbaşı Air Base

Public forecast

Using degrees Celsius for public forecast. Weather courtesy of forecast.io.

Closest aviation weather report (METAR) to Pınarbaşı Air Base

Closest report is Ercan International Airport, 13.4 nm (24.8 km) ESE. Retrieved 2021/06/20 11:20 UTC (39 minutes ago):

LCEN 201120Z 22009KT 180V260 9999 SCT025 32/14 Q1008 NOSIG RMK RWY11 20005KT

Closest aviation forecast (TAF) to Pınarbaşı Air Base

Closest forecast is Ercan International Airport, 13.4 nm (24.8 km) ESE. Retrieved 2021/06/20 06:03 UTC (6 hours ago):

TAF LCEN 200440Z 2006/2106 16015KT 9999 FEW025 TEMPO 2011/2015 BKN025 BECMG 2015/2018 29012KT